sensor_id;sensor_type;location;lat;lon;timestamp;P1;durP1;ratioP1;P2;durP2;ratioP2
33170;SDS011;19535;50.672;4.206;2022-12-08T00:00:09;17.80;;;16.20;;
33170;SDS011;19535;50.672;4.206;2022-12-08T00:02:36;17.85;;;16.35;;
33170;SDS011;19535;50.672;4.206;2022-12-08T00:05:03;16.30;;;15.00;;
33170;SDS011;19535;50.672;4.206;2022-12-08T00:07:48;16.10;;;14.73;;
33170;SDS011;19535;50.672;4.206;2022-12-08T00:10:34;16.15;;;14.75;;
33170;SDS011;19535;50.672;4.206;2022-12-08T00:13:16;14.55;;;13.35;;
33170;SDS011;19535;50.672;4.206;2022-12-08T00:15:43;14.77;;;13.50;;
33170;SDS011;19535;50.672;4.206;2022-12-08T00:18:10;14.32;;;13.02;;
33170;SDS011;19535;50.672;4.206;2022-12-08T00:20:37;12.63;;;11.63;;
33170;SDS011;19535;50.672;4.206;2022-12-08T00:23:04;13.07;;;11.98;;
33170;SDS011;19535;50.672;4.206;2022-12-08T00:25:34;13.63;;;12.43;;
33170;SDS011;19535;50.672;4.206;2022-12-08T00:28:02;11.90;;;10.93;;
33170;SDS011;19535;50.672;4.206;2022-12-08T00:30:28;12.07;;;10.98;;
33170;SDS011;19535;50.672;4.206;2022-12-08T00:32:55;11.77;;;10.77;;
33170;SDS011;19535;50.672;4.206;2022-12-08T00:35:22;10.82;;;9.88;;
33170;SDS011;19535;50.672;4.206;2022-12-08T00:37:49;11.73;;;10.70;;
33170;SDS011;19535;50.672;4.206;2022-12-08T00:40:21;11.57;;;10.57;;
33170;SDS011;19535;50.672;4.206;2022-12-08T00:42:48;10.75;;;9.85;;
33170;SDS011;19535;50.672;4.206;2022-12-08T00:45:15;10.63;;;9.73;;
33170;SDS011;19535;50.672;4.206;2022-12-08T00:47:42;10.93;;;9.93;;
33170;SDS011;19535;50.672;4.206;2022-12-08T00:50:09;10.20;;;9.30;;
33170;SDS011;19535;50.672;4.206;2022-12-08T00:52:36;10.55;;;9.65;;
33170;SDS011;19535;50.672;4.206;2022-12-08T00:55:03;10.77;;;9.77;;
33170;SDS011;19535;50.672;4.206;2022-12-08T00:57:31;10.20;;;9.30;;
33170;SDS011;19535;50.672;4.206;2022-12-08T00:59:58;9.68;;;8.88;;
33170;SDS011;19535;50.672;4.206;2022-12-08T01:02:25;10.18;;;9.27;;
33170;SDS011;19535;50.672;4.206;2022-12-08T01:04:51;9.05;;;8.35;;
33170;SDS011;19535;50.672;4.206;2022-12-08T01:07:18;9.32;;;8.52;;
33170;SDS011;19535;50.672;4.206;2022-12-08T01:09:45;9.40;;;8.60;;
33170;SDS011;19535;50.672;4.206;2022-12-08T01:12:12;9.98;;;9.07;;
33170;SDS011;19535;50.672;4.206;2022-12-08T01:14:39;9.63;;;8.73;;
33170;SDS011;19535;50.672;4.206;2022-12-08T01:17:06;9.25;;;8.35;;
33170;SDS011;19535;50.672;4.206;2022-12-08T01:19:33;9.20;;;8.35;;
33170;SDS011;19535;50.672;4.206;2022-12-08T01:22:00;9.43;;;8.63;;
33170;SDS011;19535;50.672;4.206;2022-12-08T01:24:27;8.73;;;7.93;;
33170;SDS011;19535;50.672;4.206;2022-12-08T01:26:54;9.10;;;8.30;;
33170;SDS011;19535;50.672;4.206;2022-12-08T01:29:21;9.73;;;8.85;;
33170;SDS011;19535;50.672;4.206;2022-12-08T01:31:48;9.20;;;8.40;;
33170;SDS011;19535;50.672;4.206;2022-12-08T01:34:15;8.88;;;7.97;;
33170;SDS011;19535;50.672;4.206;2022-12-08T01:36:42;8.65;;;7.63;;
33170;SDS011;19535;50.672;4.206;2022-12-08T01:39:12;8.23;;;7.53;;
33170;SDS011;19535;50.672;4.206;2022-12-08T01:41:41;8.02;;;7.32;;
33170;SDS011;19535;50.672;4.206;2022-12-08T01:46:39;7.72;;;7.03;;
33170;SDS011;19535;50.672;4.206;2022-12-08T01:49:11;7.30;;;6.70;;
33170;SDS011;19535;50.672;4.206;2022-12-08T01:51:43;6.65;;;6.05;;
33170;SDS011;19535;50.672;4.206;2022-12-08T01:54:15;7.30;;;6.70;;
33170;SDS011;19535;50.672;4.206;2022-12-08T01:56:50;7.22;;;6.53;;
33170;SDS011;19535;50.672;4.206;2022-12-08T01:59:24;7.15;;;6.50;;
33170;SDS011;19535;50.672;4.206;2022-12-08T02:01:52;6.82;;;6.13;;
33170;SDS011;19535;50.672;4.206;2022-12-08T02:04:19;7.03;;;6.35;;
33170;SDS011;19535;50.672;4.206;2022-12-08T02:06:46;7.20;;;6.50;;
33170;SDS011;19535;50.672;4.206;2022-12-08T02:09:15;7.13;;;6.53;;
33170;SDS011;19535;50.672;4.206;2022-12-08T02:11:42;6.68;;;6.07;;
33170;SDS011;19535;50.672;4.206;2022-12-08T02:14:09;6.68;;;6.07;;
33170;SDS011;19535;50.672;4.206;2022-12-08T02:22:26;6.82;;;6.13;;
33170;SDS011;19535;50.672;4.206;2022-12-08T02:42:29;5.75;;;5.22;;
33170;SDS011;19535;50.672;4.206;2022-12-08T02:45:05;6.10;;;5.60;;
33170;SDS011;19535;50.672;4.206;2022-12-08T02:47:35;6.25;;;5.65;;
33170;SDS011;19535;50.672;4.206;2022-12-08T02:50:03;6.25;;;5.70;;
33170;SDS011;19535;50.672;4.206;2022-12-08T02:55:00;6.13;;;5.53;;
33170;SDS011;19535;50.672;4.206;2022-12-08T03:08:39;5.18;;;4.68;;
33170;SDS011;19535;50.672;4.206;2022-12-08T03:11:03;5.75;;;4.82;;
33170;SDS011;19535;50.672;4.206;2022-12-08T03:13:39;5.38;;;4.95;;
33170;SDS011;19535;50.672;4.206;2022-12-08T03:16:08;5.30;;;4.80;;
33170;SDS011;19535;50.672;4.206;2022-12-08T03:18:37;5.78;;;5.22;;
33170;SDS011;19535;50.672;4.206;2022-12-08T03:21:09;5.32;;;4.82;;
33170;SDS011;19535;50.672;4.206;2022-12-08T03:23:36;5.20;;;4.70;;
33170;SDS011;19535;50.672;4.206;2022-12-08T03:26:10;5.15;;;4.65;;
33170;SDS011;19535;50.672;4.206;2022-12-08T03:28:38;5.55;;;5.05;;
33170;SDS011;19535;50.672;4.206;2022-12-08T03:31:06;5.72;;;5.18;;
33170;SDS011;19535;50.672;4.206;2022-12-08T03:33:36;5.50;;;5.00;;
33170;SDS011;19535;50.672;4.206;2022-12-08T03:38:40;7.03;;;4.80;;
33170;SDS011;19535;50.672;4.206;2022-12-08T03:41:08;5.13;;;4.63;;
33170;SDS011;19535;50.672;4.206;2022-12-08T03:46:15;4.82;;;4.40;;
33170;SDS011;19535;50.672;4.206;2022-12-08T03:48:43;4.47;;;4.07;;
33170;SDS011;19535;50.672;4.206;2022-12-08T03:51:10;5.70;;;4.97;;
33170;SDS011;19535;50.672;4.206;2022-12-08T03:53:37;5.10;;;4.60;;
33170;SDS011;19535;50.672;4.206;2022-12-08T03:56:05;5.47;;;4.93;;
33170;SDS011;19535;50.672;4.206;2022-12-08T03:58:41;4.95;;;4.55;;
33170;SDS011;19535;50.672;4.206;2022-12-08T04:01:08;5.00;;;4.50;;
33170;SDS011;19535;50.672;4.206;2022-12-08T04:03:35;4.90;;;4.40;;
33170;SDS011;19535;50.672;4.206;2022-12-08T04:06:03;5.05;;;4.55;;
33170;SDS011;19535;50.672;4.206;2022-12-08T04:08:30;4.40;;;4.00;;
33170;SDS011;19535;50.672;4.206;2022-12-08T04:10:57;4.38;;;3.97;;
33170;SDS011;19535;50.672;4.206;2022-12-08T04:13:24;4.65;;;4.25;;
33170;SDS011;19535;50.672;4.206;2022-12-08T04:15:50;4.47;;;3.80;;
33170;SDS011;19535;50.672;4.206;2022-12-08T04:18:18;4.55;;;4.13;;
33170;SDS011;19535;50.672;4.206;2022-12-08T04:20:45;4.60;;;4.20;;
33170;SDS011;19535;50.672;4.206;2022-12-08T04:23:12;5.00;;;4.50;;
33170;SDS011;19535;50.672;4.206;2022-12-08T04:25:39;4.78;;;4.35;;
33170;SDS011;19535;50.672;4.206;2022-12-08T04:28:05;4.28;;;3.88;;
33170;SDS011;19535;50.672;4.206;2022-12-08T04:30:32;4.85;;;4.38;;
33170;SDS011;19535;50.672;4.206;2022-12-08T04:32:59;4.93;;;4.03;;
33170;SDS011;19535;50.672;4.206;2022-12-08T04:35:26;5.50;;;4.63;;
33170;SDS011;19535;50.672;4.206;2022-12-08T04:37:53;4.68;;;4.28;;
33170;SDS011;19535;50.672;4.206;2022-12-08T04:40:20;4.82;;;3.90;;
33170;SDS011;19535;50.672;4.206;2022-12-08T04:42:47;4.65;;;3.90;;
33170;SDS011;19535;50.672;4.206;2022-12-08T04:45:14;5.18;;;3.53;;
33170;SDS011;19535;50.672;4.206;2022-12-08T04:47:41;4.05;;;3.65;;
33170;SDS011;19535;50.672;4.206;2022-12-08T04:50:08;4.68;;;3.95;;
33170;SDS011;19535;50.672;4.206;2022-12-08T04:52:36;4.72;;;3.90;;
33170;SDS011;19535;50.672;4.206;2022-12-08T04:55:02;3.55;;;3.25;;
33170;SDS011;19535;50.672;4.206;2022-12-08T04:57:30;3.53;;;3.17;;
33170;SDS011;19535;50.672;4.206;2022-12-08T04:59:57;4.57;;;3.75;;
33170;SDS011;19535;50.672;4.206;2022-12-08T05:02:24;3.35;;;3.00;;
33170;SDS011;19535;50.672;4.206;2022-12-08T05:04:51;3.88;;;3.35;;
33170;SDS011;19535;50.672;4.206;2022-12-08T05:07:18;3.67;;;3.13;;
33170;SDS011;19535;50.672;4.206;2022-12-08T05:09:45;4.15;;;3.38;;
33170;SDS011;19535;50.672;4.206;2022-12-08T05:12:12;4.05;;;3.28;;
33170;SDS011;19535;50.672;4.206;2022-12-08T05:14:38;3.30;;;2.78;;
33170;SDS011;19535;50.672;4.206;2022-12-08T05:17:05;4.05;;;3.47;;
33170;SDS011;19535;50.672;4.206;2022-12-08T05:19:35;3.28;;;2.97;;
33170;SDS011;19535;50.672;4.206;2022-12-08T05:22:02;4.28;;;3.10;;
33170;SDS011;19535;50.672;4.206;2022-12-08T05:24:29;3.63;;;3.33;;
33170;SDS011;19535;50.672;4.206;2022-12-08T05:26:55;4.65;;;3.15;;
33170;SDS011;19535;50.672;4.206;2022-12-08T05:29:22;3.83;;;3.03;;
33170;SDS011;19535;50.672;4.206;2022-12-08T05:31:49;4.40;;;2.97;;
33170;SDS011;19535;50.672;4.206;2022-12-08T05:34:17;3.65;;;2.97;;
33170;SDS011;19535;50.672;4.206;2022-12-08T05:36:44;3.13;;;2.80;;
33170;SDS011;19535;50.672;4.206;2022-12-08T05:39:11;4.38;;;2.75;;
33170;SDS011;19535;50.672;4.206;2022-12-08T05:41:39;3.13;;;2.83;;
33170;SDS011;19535;50.672;4.206;2022-12-08T05:44:06;3.97;;;2.95;;
33170;SDS011;19535;50.672;4.206;2022-12-08T05:46:33;4.80;;;3.45;;
33170;SDS011;19535;50.672;4.206;2022-12-08T05:49:01;3.95;;;3.38;;
33170;SDS011;19535;50.672;4.206;2022-12-08T05:51:28;6.68;;;3.25;;
33170;SDS011;19535;50.672;4.206;2022-12-08T05:53:55;3.35;;;3.05;;
33170;SDS011;19535;50.672;4.206;2022-12-08T05:56:22;3.90;;;2.75;;
33170;SDS011;19535;50.672;4.206;2022-12-08T05:58:49;3.78;;;2.97;;
33170;SDS011;19535;50.672;4.206;2022-12-08T06:01:20;3.33;;;2.80;;
33170;SDS011;19535;50.672;4.206;2022-12-08T06:03:49;3.85;;;2.72;;
33170;SDS011;19535;50.672;4.206;2022-12-08T06:06:16;4.53;;;2.95;;
33170;SDS011;19535;50.672;4.206;2022-12-08T06:08:43;3.75;;;2.85;;
33170;SDS011;19535;50.672;4.206;2022-12-08T06:11:16;3.33;;;2.92;;
33170;SDS011;19535;50.672;4.206;2022-12-08T06:13:45;3.15;;;2.83;;
33170;SDS011;19535;50.672;4.206;2022-12-08T06:16:12;3.35;;;2.90;;
33170;SDS011;19535;50.672;4.206;2022-12-08T06:18:39;3.90;;;3.28;;
33170;SDS011;19535;50.672;4.206;2022-12-08T06:21:07;4.05;;;3.20;;
33170;SDS011;19535;50.672;4.206;2022-12-08T06:23:35;2.95;;;2.75;;
33170;SDS011;19535;50.672;4.206;2022-12-08T06:26:04;3.28;;;2.95;;
33170;SDS011;19535;50.672;4.206;2022-12-08T06:28:34;3.00;;;2.70;;
33170;SDS011;19535;50.672;4.206;2022-12-08T06:31:35;3.20;;;2.90;;
33170;SDS011;19535;50.672;4.206;2022-12-08T06:33:55;3.08;;;2.75;;
33170;SDS011;19535;50.672;4.206;2022-12-08T06:36:23;3.63;;;3.20;;
33170;SDS011;19535;50.672;4.206;2022-12-08T06:38:51;3.60;;;3.30;;
33170;SDS011;19535;50.672;4.206;2022-12-08T06:41:18;3.83;;;2.88;;
33170;SDS011;19535;50.672;4.206;2022-12-08T06:43:45;3.33;;;3.00;;
33170;SDS011;19535;50.672;4.206;2022-12-08T06:46:13;4.65;;;3.00;;
33170;SDS011;19535;50.672;4.206;2022-12-08T06:48:42;3.53;;;3.08;;
33170;SDS011;19535;50.672;4.206;2022-12-08T06:51:13;2.95;;;2.65;;
33170;SDS011;19535;50.672;4.206;2022-12-08T06:53:41;4.15;;;2.90;;
33170;SDS011;19535;50.672;4.206;2022-12-08T06:56:09;4.15;;;3.20;;
33170;SDS011;19535;50.672;4.206;2022-12-08T06:58:36;3.45;;;2.60;;
33170;SDS011;19535;50.672;4.206;2022-12-08T07:01:07;3.67;;;2.80;;
33170;SDS011;19535;50.672;4.206;2022-12-08T07:03:36;4.15;;;2.60;;
33170;SDS011;19535;50.672;4.206;2022-12-08T07:06:04;3.92;;;2.40;;
33170;SDS011;19535;50.672;4.206;2022-12-08T07:08:32;2.80;;;2.45;;
33170;SDS011;19535;50.672;4.206;2022-12-08T07:11:04;3.33;;;2.40;;
33170;SDS011;19535;50.672;4.206;2022-12-08T07:13:34;4.38;;;3.10;;
33170;SDS011;19535;50.672;4.206;2022-12-08T07:16:03;3.80;;;2.92;;
33170;SDS011;19535;50.672;4.206;2022-12-08T07:18:34;10.32;;;9.10;;
33170;SDS011;19535;50.672;4.206;2022-12-08T07:21:05;18.08;;;16.38;;
33170;SDS011;19535;50.672;4.206;2022-12-08T07:23:33;16.15;;;14.57;;
33170;SDS011;19535;50.672;4.206;2022-12-08T07:26:01;15.25;;;13.75;;
33170;SDS011;19535;50.672;4.206;2022-12-08T07:28:33;12.20;;;11.00;;
33170;SDS011;19535;50.672;4.206;2022-12-08T07:31:01;11.38;;;9.90;;
33170;SDS011;19535;50.672;4.206;2022-12-08T07:33:30;10.32;;;9.20;;
33170;SDS011;19535;50.672;4.206;2022-12-08T07:35:58;9.10;;;8.23;;
33170;SDS011;19535;50.672;4.206;2022-12-08T07:38:27;8.07;;;7.32;;
33170;SDS011;19535;50.672;4.206;2022-12-08T07:40:54;8.00;;;7.20;;
33170;SDS011;19535;50.672;4.206;2022-12-08T07:43:21;7.85;;;7.05;;
33170;SDS011;19535;50.672;4.206;2022-12-08T07:45:49;9.48;;;7.57;;
33170;SDS011;19535;50.672;4.206;2022-12-08T07:48:16;6.80;;;6.10;;
33170;SDS011;19535;50.672;4.206;2022-12-08T07:50:43;6.53;;;5.90;;
33170;SDS011;19535;50.672;4.206;2022-12-08T07:53:11;6.85;;;5.78;;
33170;SDS011;19535;50.672;4.206;2022-12-08T07:55:38;6.00;;;5.40;;
33170;SDS011;19535;50.672;4.206;2022-12-08T07:58:06;5.57;;;5.07;;
33170;SDS011;19535;50.672;4.206;2022-12-08T08:00:33;6.82;;;5.50;;
33170;SDS011;19535;50.672;4.206;2022-12-08T08:03:00;6.00;;;5.40;;
33170;SDS011;19535;50.672;4.206;2022-12-08T08:05:28;5.63;;;5.13;;
33170;SDS011;19535;50.672;4.206;2022-12-08T08:07:55;5.00;;;4.50;;
33170;SDS011;19535;50.672;4.206;2022-12-08T08:10:22;6.00;;;5.25;;
33170;SDS011;19535;50.672;4.206;2022-12-08T08:12:49;5.93;;;5.05;;
33170;SDS011;19535;50.672;4.206;2022-12-08T08:15:15;5.57;;;4.97;;
33170;SDS011;19535;50.672;4.206;2022-12-08T08:17:44;6.07;;;4.70;;
33170;SDS011;19535;50.672;4.206;2022-12-08T08:20:15;5.05;;;4.53;;
33170;SDS011;19535;50.672;4.206;2022-12-08T08:22:43;5.25;;;4.60;;
33170;SDS011;19535;50.672;4.206;2022-12-08T08:25:11;4.83;;;4.33;;
33170;SDS011;19535;50.672;4.206;2022-12-08T08:27:39;5.13;;;4.05;;
33170;SDS011;19535;50.672;4.206;2022-12-08T08:30:06;4.72;;;3.90;;
33170;SDS011;19535;50.672;4.206;2022-12-08T08:32:34;4.30;;;3.90;;
33170;SDS011;19535;50.672;4.206;2022-12-08T08:35:02;5.00;;;4.07;;
33170;SDS011;19535;50.672;4.206;2022-12-08T08:37:29;5.43;;;4.47;;
33170;SDS011;19535;50.672;4.206;2022-12-08T08:39:57;6.22;;;4.03;;
33170;SDS011;19535;50.672;4.206;2022-12-08T08:42:24;4.45;;;3.85;;
33170;SDS011;19535;50.672;4.206;2022-12-08T08:44:50;5.13;;;3.70;;
33170;SDS011;19535;50.672;4.206;2022-12-08T08:47:18;4.20;;;3.60;;
33170;SDS011;19535;50.672;4.206;2022-12-08T08:49:45;4.60;;;3.60;;
33170;SDS011;19535;50.672;4.206;2022-12-08T08:52:12;4.47;;;3.75;;
33170;SDS011;19535;50.672;4.206;2022-12-08T08:54:39;4.68;;;3.83;;
33170;SDS011;19535;50.672;4.206;2022-12-08T08:57:06;6.82;;;3.78;;
33170;SDS011;19535;50.672;4.206;2022-12-08T08:59:34;9.00;;;8.20;;
33170;SDS011;19535;50.672;4.206;2022-12-08T09:02:01;28.27;;;25.63;;
33170;SDS011;19535;50.672;4.206;2022-12-08T09:04:28;27.17;;;24.27;;
33170;SDS011;19535;50.672;4.206;2022-12-08T09:06:55;25.73;;;23.45;;
33170;SDS011;19535;50.672;4.206;2022-12-08T09:09:22;24.85;;;21.45;;
33170;SDS011;19535;50.672;4.206;2022-12-08T09:11:49;21.13;;;19.13;;
33170;SDS011;19535;50.672;4.206;2022-12-08T09:14:16;17.05;;;15.55;;
33170;SDS011;19535;50.672;4.206;2022-12-08T09:16:43;17.95;;;16.25;;
33170;SDS011;19535;50.672;4.206;2022-12-08T09:19:10;16.50;;;14.98;;
33170;SDS011;19535;50.672;4.206;2022-12-08T09:21:37;15.68;;;14.18;;
33170;SDS011;19535;50.672;4.206;2022-12-08T09:24:05;14.93;;;13.55;;
33170;SDS011;19535;50.672;4.206;2022-12-08T09:26:33;13.05;;;11.82;;
33170;SDS011;19535;50.672;4.206;2022-12-08T09:29:00;12.38;;;11.02;;
33170;SDS011;19535;50.672;4.206;2022-12-08T09:31:27;11.88;;;10.68;;
33170;SDS011;19535;50.672;4.206;2022-12-08T09:33:54;11.77;;;10.70;;
33170;SDS011;19535;50.672;4.206;2022-12-08T09:36:21;11.68;;;10.57;;
33170;SDS011;19535;50.672;4.206;2022-12-08T09:38:48;10.52;;;9.30;;
33170;SDS011;19535;50.672;4.206;2022-12-08T09:41:24;9.20;;;8.30;;
33170;SDS011;19535;50.672;4.206;2022-12-08T09:46:50;9.35;;;8.45;;
33170;SDS011;19535;50.672;4.206;2022-12-08T09:49:20;8.00;;;7.25;;
33170;SDS011;19535;50.672;4.206;2022-12-08T09:51:58;7.70;;;7.00;;
33170;SDS011;19535;50.672;4.206;2022-12-08T09:54:34;7.60;;;6.90;;
33170;SDS011;19535;50.672;4.206;2022-12-08T09:57:02;9.73;;;8.80;;
33170;SDS011;19535;50.672;4.206;2022-12-08T09:59:33;17.70;;;16.20;;
33170;SDS011;19535;50.672;4.206;2022-12-08T10:02:01;16.90;;;15.40;;
33170;SDS011;19535;50.672;4.206;2022-12-08T10:04:39;13.90;;;12.70;;
33170;SDS011;19535;50.672;4.206;2022-12-08T10:09:52;12.77;;;11.57;;
33170;SDS011;19535;50.672;4.206;2022-12-08T10:12:45;11.35;;;10.25;;
33170;SDS011;19535;50.672;4.206;2022-12-08T10:18:02;11.45;;;9.23;;
33170;SDS011;19535;50.672;4.206;2022-12-08T10:20:36;9.15;;;8.25;;
33170;SDS011;19535;50.672;4.206;2022-12-08T10:25:48;7.82;;;6.90;;
33170;SDS011;19535;50.672;4.206;2022-12-08T10:28:16;7.38;;;6.72;;
33170;SDS011;19535;50.672;4.206;2022-12-08T10:30:43;7.72;;;6.60;;
33170;SDS011;19535;50.672;4.206;2022-12-08T10:33:13;6.57;;;5.90;;
33170;SDS011;19535;50.672;4.206;2022-12-08T10:35:48;6.28;;;5.78;;
33170;SDS011;19535;50.672;4.206;2022-12-08T10:40:58;5.38;;;4.88;;
33170;SDS011;19535;50.672;4.206;2022-12-08T10:43:32;6.70;;;5.00;;
33170;SDS011;19535;50.672;4.206;2022-12-08T10:46:10;5.22;;;4.60;;
33170;SDS011;19535;50.672;4.206;2022-12-08T10:48:46;5.10;;;4.60;;
33170;SDS011;19535;50.672;4.206;2022-12-08T10:51:21;5.07;;;4.50;;
33170;SDS011;19535;50.672;4.206;2022-12-08T10:53:48;6.63;;;5.10;;
33170;SDS011;19535;50.672;4.206;2022-12-08T10:56:15;4.70;;;4.10;;
33170;SDS011;19535;50.672;4.206;2022-12-08T10:58:44;5.35;;;4.57;;
33170;SDS011;19535;50.672;4.206;2022-12-08T11:03:55;4.85;;;4.15;;
33170;SDS011;19535;50.672;4.206;2022-12-08T11:06:25;6.40;;;4.07;;
33170;SDS011;19535;50.672;4.206;2022-12-08T11:08:59;4.78;;;4.18;;
33170;SDS011;19535;50.672;4.206;2022-12-08T11:12:14;4.95;;;3.88;;
33170;SDS011;19535;50.672;4.206;2022-12-08T11:20:01;4.63;;;3.42;;
33170;SDS011;19535;50.672;4.206;2022-12-08T11:22:50;9.60;;;8.70;;
33170;SDS011;19535;50.672;4.206;2022-12-08T11:27:47;11.90;;;10.70;;
33170;SDS011;19535;50.672;4.206;2022-12-08T11:32:43;8.77;;;7.97;;
33170;SDS011;19535;50.672;4.206;2022-12-08T11:37:56;6.50;;;5.90;;
33170;SDS011;19535;50.672;4.206;2022-12-08T11:40:47;8.40;;;5.82;;
33170;SDS011;19535;50.672;4.206;2022-12-08T11:43:26;6.53;;;5.90;;
33170;SDS011;19535;50.672;4.206;2022-12-08T11:45:56;5.10;;;4.65;;
33170;SDS011;19535;50.672;4.206;2022-12-08T11:48:28;5.10;;;4.60;;
33170;SDS011;19535;50.672;4.206;2022-12-08T11:51:01;5.55;;;4.70;;
33170;SDS011;19535;50.672;4.206;2022-12-08T11:53:36;4.53;;;4.13;;
33170;SDS011;19535;50.672;4.206;2022-12-08T11:56:12;12.73;;;11.63;;
33170;SDS011;19535;50.672;4.206;2022-12-08T11:58:46;15.20;;;13.80;;
33170;SDS011;19535;50.672;4.206;2022-12-08T12:01:23;13.35;;;12.23;;
33170;SDS011;19535;50.672;4.206;2022-12-08T12:03:57;12.35;;;11.25;;
33170;SDS011;19535;50.672;4.206;2022-12-08T12:06:30;10.52;;;9.60;;
33170;SDS011;19535;50.672;4.206;2022-12-08T12:12:28;8.20;;;6.50;;
33170;SDS011;19535;50.672;4.206;2022-12-08T12:15:15;6.50;;;6.00;;
33170;SDS011;19535;50.672;4.206;2022-12-08T12:17:54;6.97;;;6.38;;
33170;SDS011;19535;50.672;4.206;2022-12-08T12:20:29;6.03;;;5.43;;
33170;SDS011;19535;50.672;4.206;2022-12-08T12:23:00;5.78;;;5.28;;
33170;SDS011;19535;50.672;4.206;2022-12-08T12:25:31;5.20;;;4.63;;
33170;SDS011;19535;50.672;4.206;2022-12-08T12:28:00;5.95;;;4.80;;
33170;SDS011;19535;50.672;4.206;2022-12-08T12:33:22;4.65;;;4.22;;
33170;SDS011;19535;50.672;4.206;2022-12-08T12:35:49;4.15;;;3.75;;
33170;SDS011;19535;50.672;4.206;2022-12-08T12:38:23;5.88;;;4.15;;
33170;SDS011;19535;50.672;4.206;2022-12-08T12:41:10;3.83;;;3.53;;
33170;SDS011;19535;50.672;4.206;2022-12-08T12:43:38;3.88;;;3.58;;
33170;SDS011;19535;50.672;4.206;2022-12-08T12:48:51;4.22;;;3.78;;
33170;SDS011;19535;50.672;4.206;2022-12-08T12:52:01;4.28;;;3.58;;
33170;SDS011;19535;50.672;4.206;2022-12-08T12:54:24;4.05;;;3.50;;
33170;SDS011;19535;50.672;4.206;2022-12-08T12:56:53;3.80;;;3.30;;
33170;SDS011;19535;50.672;4.206;2022-12-08T12:59:30;3.35;;;3.05;;
33170;SDS011;19535;50.672;4.206;2022-12-08T13:01:57;3.85;;;3.15;;
33170;SDS011;19535;50.672;4.206;2022-12-08T13:04:31;3.80;;;3.42;;
33170;SDS011;19535;50.672;4.206;2022-12-08T13:07:00;3.40;;;3.15;;
33170;SDS011;19535;50.672;4.206;2022-12-08T13:09:35;3.80;;;3.40;;
33170;SDS011;19535;50.672;4.206;2022-12-08T13:12:09;3.25;;;2.90;;
33170;SDS011;19535;50.672;4.206;2022-12-08T13:14:44;3.55;;;3.25;;
33170;SDS011;19535;50.672;4.206;2022-12-08T13:17:16;3.30;;;3.00;;
33170;SDS011;19535;50.672;4.206;2022-12-08T13:20:00;3.10;;;2.90;;
33170;SDS011;19535;50.672;4.206;2022-12-08T13:28:27;3.22;;;2.92;;
33170;SDS011;19535;50.672;4.206;2022-12-08T13:30:55;2.97;;;2.78;;
33170;SDS011;19535;50.672;4.206;2022-12-08T13:38:38;10.10;;;9.20;;
33170;SDS011;19535;50.672;4.206;2022-12-08T13:41:08;16.65;;;15.23;;
33170;SDS011;19535;50.672;4.206;2022-12-08T13:43:47;17.40;;;15.95;;
33170;SDS011;19535;50.672;4.206;2022-12-08T13:46:39;14.50;;;13.30;;
33170;SDS011;19535;50.672;4.206;2022-12-08T13:49:51;13.43;;;12.30;;
33170;SDS011;19535;50.672;4.206;2022-12-08T13:58:27;9.57;;;8.68;;
33170;SDS011;19535;50.672;4.206;2022-12-08T14:03:44;7.78;;;7.07;;
33170;SDS011;19535;50.672;4.206;2022-12-08T14:06:35;7.00;;;6.30;;
33170;SDS011;19535;50.672;4.206;2022-12-08T14:09:09;9.80;;;6.35;;
33170;SDS011;19535;50.672;4.206;2022-12-08T14:11:39;19.90;;;18.17;;
33170;SDS011;19535;50.672;4.206;2022-12-08T14:14:14;29.05;;;26.27;;
33170;SDS011;19535;50.672;4.206;2022-12-08T14:17:25;27.52;;;25.05;;
33170;SDS011;19535;50.672;4.206;2022-12-08T14:19:53;26.05;;;23.75;;
33170;SDS011;19535;50.672;4.206;2022-12-08T14:22:35;23.02;;;20.80;;
33170;SDS011;19535;50.672;4.206;2022-12-08T14:25:04;19.75;;;18.05;;
33170;SDS011;19535;50.672;4.206;2022-12-08T14:30:05;17.23;;;15.68;;
33170;SDS011;19535;50.672;4.206;2022-12-08T14:32:43;16.08;;;14.68;;
33170;SDS011;19535;50.672;4.206;2022-12-08T14:35:33;15.43;;;14.13;;
33170;SDS011;19535;50.672;4.206;2022-12-08T14:38:17;14.07;;;12.88;;
33170;SDS011;19535;50.672;4.206;2022-12-08T14:40:59;14.15;;;12.95;;
33170;SDS011;19535;50.672;4.206;2022-12-08T14:43:28;12.65;;;11.55;;
33170;SDS011;19535;50.672;4.206;2022-12-08T14:45:57;12.50;;;11.40;;
33170;SDS011;19535;50.672;4.206;2022-12-08T14:56:31;37.88;;;34.08;;
33170;SDS011;19535;50.672;4.206;2022-12-08T14:59:21;36.88;;;33.45;;
33170;SDS011;19535;50.672;4.206;2022-12-08T15:08:00;24.98;;;22.77;;
33170;SDS011;19535;50.672;4.206;2022-12-08T15:10:30;22.77;;;20.73;;
33170;SDS011;19535;50.672;4.206;2022-12-08T15:13:02;19.65;;;17.52;;
33170;SDS011;19535;50.672;4.206;2022-12-08T15:15:43;18.17;;;16.67;;
33170;SDS011;19535;50.672;4.206;2022-12-08T15:20:54;15.48;;;14.07;;
33170;SDS011;19535;50.672;4.206;2022-12-08T15:23:31;14.52;;;13.23;;
33170;SDS011;19535;50.672;4.206;2022-12-08T15:26:00;13.15;;;12.05;;
33170;SDS011;19535;50.672;4.206;2022-12-08T15:28:29;12.77;;;11.68;;
33170;SDS011;19535;50.672;4.206;2022-12-08T15:30:57;12.10;;;10.98;;
33170;SDS011;19535;50.672;4.206;2022-12-08T15:33:24;11.45;;;10.45;;
33170;SDS011;19535;50.672;4.206;2022-12-08T15:35:52;10.57;;;9.68;;
33170;SDS011;19535;50.672;4.206;2022-12-08T15:38:25;10.80;;;9.90;;
33170;SDS011;19535;50.672;4.206;2022-12-08T15:40:56;9.27;;;8.48;;
33170;SDS011;19535;50.672;4.206;2022-12-08T15:43:24;10.13;;;9.23;;
33170;SDS011;19535;50.672;4.206;2022-12-08T15:45:51;9.00;;;8.10;;
33170;SDS011;19535;50.672;4.206;2022-12-08T15:48:26;9.23;;;8.43;;
33170;SDS011;19535;50.672;4.206;2022-12-08T15:50:54;9.52;;;8.70;;
33170;SDS011;19535;50.672;4.206;2022-12-08T15:53:21;8.30;;;7.60;;
33170;SDS011;19535;50.672;4.206;2022-12-08T15:55:48;8.57;;;7.88;;
33170;SDS011;19535;50.672;4.206;2022-12-08T15:58:35;8.70;;;8.00;;
33170;SDS011;19535;50.672;4.206;2022-12-08T16:01:20;8.48;;;7.78;;
33170;SDS011;19535;50.672;4.206;2022-12-08T16:03:47;7.45;;;6.78;;
33170;SDS011;19535;50.672;4.206;2022-12-08T16:06:35;7.82;;;7.13;;
33170;SDS011;19535;50.672;4.206;2022-12-08T16:09:32;7.85;;;7.05;;
33170;SDS011;19535;50.672;4.206;2022-12-08T16:12:04;8.07;;;6.85;;
33170;SDS011;19535;50.672;4.206;2022-12-08T16:14:51;35.75;;;32.20;;
33170;SDS011;19535;50.672;4.206;2022-12-08T16:17:38;48.25;;;43.10;;
33170;SDS011;19535;50.672;4.206;2022-12-08T16:20:09;51.22;;;45.80;;
33170;SDS011;19535;50.672;4.206;2022-12-08T16:22:38;48.10;;;43.50;;
33170;SDS011;19535;50.672;4.206;2022-12-08T16:25:25;44.10;;;39.90;;
33170;SDS011;19535;50.672;4.206;2022-12-08T16:28:11;40.08;;;36.45;;
33170;SDS011;19535;50.672;4.206;2022-12-08T16:30:58;35.10;;;31.80;;
33170;SDS011;19535;50.672;4.206;2022-12-08T16:33:25;33.17;;;29.83;;
33170;SDS011;19535;50.672;4.206;2022-12-08T16:35:52;29.13;;;26.67;;
33170;SDS011;19535;50.672;4.206;2022-12-08T16:38:19;25.92;;;23.73;;
33170;SDS011;19535;50.672;4.206;2022-12-08T16:40:46;25.42;;;23.30;;
33170;SDS011;19535;50.672;4.206;2022-12-08T16:43:32;23.13;;;21.13;;
33170;SDS011;19535;50.672;4.206;2022-12-08T16:46:00;20.80;;;19.00;;
33170;SDS011;19535;50.672;4.206;2022-12-08T16:48:27;20.83;;;18.80;;
33170;SDS011;19535;50.672;4.206;2022-12-08T16:50:54;18.92;;;17.27;;
33170;SDS011;19535;50.672;4.206;2022-12-08T16:53:22;19.13;;;17.52;;
33170;SDS011;19535;50.672;4.206;2022-12-08T16:55:49;16.52;;;15.02;;
33170;SDS011;19535;50.672;4.206;2022-12-08T16:58:16;15.88;;;14.57;;
33170;SDS011;19535;50.672;4.206;2022-12-08T17:00:45;16.13;;;14.73;;
33170;SDS011;19535;50.672;4.206;2022-12-08T17:03:13;15.32;;;14.02;;